createdAt,value
2023-11-12T00:01:02.534Z,87.03
2023-11-12T00:03:50.938Z,87.11
2023-11-12T00:06:19.018Z,87.32
2023-11-12T00:08:47.765Z,87.44
2023-11-12T00:11:15.981Z,87.51
2023-11-12T00:13:43.909Z,87.64
2023-11-12T00:16:12.082Z,87.65
2023-11-12T00:18:40.723Z,87.41
2023-11-12T00:21:08.646Z,87.29
2023-11-12T00:23:37.558Z,87.34
2023-11-12T00:26:05.765Z,87.48
2023-11-12T00:28:34.139Z,87.51
2023-11-12T00:31:02.069Z,87.37
2023-11-12T00:33:31.046Z,87.52
2023-11-12T00:35:59.372Z,87.55
2023-11-12T00:38:27.275Z,87.54
2023-11-12T00:40:56.395Z,87.24
2023-11-12T00:43:28.391Z,86.92
2023-11-12T00:46:02.528Z,86.81
2023-11-12T00:48:30.503Z,86.87
2023-11-12T00:50:58.580Z,87.03
2023-11-12T00:53:28.421Z,87.00
2023-11-12T00:56:00.590Z,86.88
2023-11-12T00:58:28.872Z,87.07
2023-11-12T01:00:56.681Z,87.06
2023-11-12T01:03:29.560Z,87.05
2023-11-12T01:05:57.604Z,87.12
2023-11-12T01:08:26.564Z,87.24
2023-11-12T01:10:55.540Z,87.35
2023-11-12T01:13:23.734Z,87.48
2023-11-12T01:15:53.058Z,87.44
2023-11-12T01:18:22.390Z,87.24
2023-11-12T01:20:50.633Z,87.27
2023-11-12T01:23:18.604Z,87.32
2023-11-12T01:25:46.857Z,87.25
2023-11-12T01:28:14.731Z,87.21
2023-11-12T01:30:42.760Z,87.23
2023-11-12T01:33:11.624Z,87.40
2023-11-12T01:35:39.920Z,87.49
2023-11-12T01:38:08.447Z,87.57
2023-11-12T01:40:42.518Z,87.85
2023-11-12T01:43:11.222Z,88.06
2023-11-12T01:45:39.278Z,88.16
2023-11-12T01:48:09.798Z,88.38
2023-11-12T01:50:39.455Z,88.43
2023-11-12T01:53:10.567Z,88.26
2023-11-12T01:55:39.045Z,88.20
2023-11-12T01:58:10.548Z,88.17
2023-11-12T02:00:41.092Z,88.22
2023-11-12T02:03:12.962Z,88.17
2023-11-12T02:05:41.370Z,88.23
2023-11-12T02:08:10.220Z,88.20
2023-11-12T02:10:38.245Z,88.08
2023-11-12T02:13:07.948Z,87.97
2023-11-12T02:15:36.144Z,87.95
2023-11-12T02:18:04.532Z,87.95
2023-11-12T02:20:32.665Z,88.15
2023-11-12T02:23:00.654Z,88.26
2023-11-12T02:25:28.583Z,88.23
2023-11-12T02:27:56.658Z,88.42
2023-11-12T02:30:25.387Z,88.47
2023-11-12T02:32:53.427Z,88.43
2023-11-12T02:35:21.299Z,88.55
2023-11-12T02:37:49.330Z,88.71
2023-11-12T02:40:17.612Z,88.75
2023-11-12T02:42:45.586Z,88.81
2023-11-12T02:45:14.466Z,88.62
2023-11-12T02:47:44.568Z,88.54
2023-11-12T02:50:26.229Z,88.30
2023-11-12T02:52:55.139Z,88.17
2023-11-12T02:55:23.164Z,88.20
2023-11-12T02:57:51.276Z,87.86
2023-11-12T03:00:19.514Z,87.79
2023-11-12T03:02:49.142Z,87.77
2023-11-12T03:05:17.087Z,87.90
2023-11-12T03:07:45.064Z,87.85
2023-11-12T03:10:13.138Z,87.58
2023-11-12T03:12:41.126Z,87.46
2023-11-12T03:15:11.128Z,87.43
2023-11-12T03:17:40.276Z,88.03
2023-11-12T03:20:13.325Z,88.11
2023-11-12T03:22:41.261Z,88.12
2023-11-12T03:25:11.527Z,87.90
2023-11-12T03:27:39.988Z,87.85
2023-11-12T03:30:10.579Z,87.74
2023-11-12T03:32:39.936Z,87.47
2023-11-12T03:35:09.606Z,87.32
2023-11-12T03:37:37.865Z,87.30
2023-11-12T03:40:06.419Z,87.41
2023-11-12T03:42:34.500Z,87.12
2023-11-12T03:45:04.720Z,86.57
2023-11-12T03:47:32.968Z,86.64
2023-11-12T03:50:01.015Z,86.75
2023-11-12T03:52:28.979Z,86.64
2023-11-12T03:54:57.004Z,86.68
2023-11-12T03:57:25.384Z,86.52
2023-11-12T03:59:53.815Z,86.44
2023-11-12T04:02:22.316Z,86.31
2023-11-12T04:04:50.373Z,86.50
2023-11-12T04:07:18.528Z,86.27
2023-11-12T04:09:48.268Z,86.25
2023-11-12T04:12:16.287Z,86.51
2023-11-12T04:14:45.724Z,86.61
2023-11-12T04:17:14.284Z,86.48
2023-11-12T04:19:42.235Z,86.51
2023-11-12T04:22:10.200Z,86.62
2023-11-12T04:24:38.164Z,86.77
2023-11-12T04:27:07.768Z,86.84
2023-11-12T04:29:36.380Z,86.95
2023-11-12T04:32:05.753Z,87.00
2023-11-12T04:34:33.784Z,87.06
2023-11-12T04:37:01.871Z,86.96
2023-11-12T04:39:30.163Z,86.75
2023-11-12T04:42:01.009Z,86.78
2023-11-12T04:44:28.937Z,86.77
2023-11-12T04:46:56.787Z,86.83
2023-11-12T04:49:25.543Z,86.69
2023-11-12T04:51:54.991Z,86.71
2023-11-12T04:54:22.970Z,86.95
2023-11-12T04:56:50.923Z,87.06
2023-11-12T04:59:18.963Z,86.99
2023-11-12T05:01:47.217Z,87.02
2023-11-12T05:04:15.381Z,86.90
2023-11-12T05:06:45.739Z,87.07
2023-11-12T05:09:14.966Z,87.33
2023-11-12T05:12:10.975Z,87.23
2023-11-12T05:16:13.430Z,87.17
2023-11-12T05:18:42.117Z,87.06
2023-11-12T05:21:10.346Z,87.25
2023-11-12T05:23:40.289Z,87.33
2023-11-12T05:26:08.354Z,87.43
2023-11-12T05:30:01.259Z,87.58
2023-11-12T05:33:42.628Z,87.40
2023-11-12T05:36:10.800Z,87.48
2023-11-12T05:38:40.006Z,87.54
2023-11-12T05:41:09.095Z,87.57
2023-11-12T05:43:37.270Z,87.53
2023-11-12T05:46:09.627Z,87.33
2023-11-12T05:48:37.881Z,87.24
2023-11-12T05:51:10.507Z,86.94
2023-11-12T05:53:38.632Z,86.61
2023-11-12T05:56:08.319Z,86.66
2023-11-12T05:58:36.484Z,86.90
2023-11-12T06:01:04.702Z,86.92
2023-11-12T06:03:33.133Z,86.88
2023-11-12T06:06:01.376Z,86.75
2023-11-12T06:08:29.443Z,86.40
2023-11-12T06:10:57.828Z,86.12
2023-11-12T06:13:25.929Z,86.20
2023-11-12T06:15:54.834Z,86.07
2023-11-12T06:18:23.886Z,86.18
2023-11-12T06:20:53.200Z,86.20
2023-11-12T06:23:21.122Z,86.20
2023-11-12T06:25:49.414Z,86.16
2023-11-12T06:28:19.325Z,86.11
2023-11-12T06:30:47.540Z,86.14
2023-11-12T06:33:15.881Z,86.32
2023-11-12T06:35:45.040Z,86.15
2023-11-12T06:38:14.688Z,86.24
2023-11-12T06:40:42.714Z,85.91
2023-11-12T06:43:10.938Z,85.52
2023-11-12T06:45:40.076Z,85.71
2023-11-12T06:48:08.766Z,85.58
2023-11-12T06:50:36.686Z,85.59
2023-11-12T06:53:04.745Z,85.37
2023-11-12T06:55:34.195Z,85.39
2023-11-12T06:58:02.153Z,85.23
2023-11-12T07:00:30.107Z,84.95
2023-11-12T07:02:59.074Z,84.47
2023-11-12T07:08:10.783Z,84.16
2023-11-12T07:10:39.208Z,84.25
2023-11-12T07:13:07.478Z,83.67
2023-11-12T07:15:36.157Z,83.58
2023-11-12T07:18:04.238Z,83.36
2023-11-12T07:20:34.403Z,83.55
2023-11-12T07:23:02.679Z,82.73
2023-11-12T07:25:34.074Z,81.24
2023-11-12T07:28:02.147Z,82.11
2023-11-12T07:30:31.452Z,81.31
2023-11-12T07:32:59.568Z,80.84
2023-11-12T07:35:27.507Z,80.00
2023-11-12T07:37:55.458Z,77.96
2023-11-12T07:40:27.512Z,77.81
2023-11-12T07:42:57.818Z,77.22
2023-11-12T07:45:31.816Z,76.43
2023-11-12T07:48:08.254Z,76.25
2023-11-12T07:50:39.021Z,74.86
2023-11-12T07:53:07.082Z,73.92
2023-11-12T07:55:35.249Z,74.05
2023-11-12T07:58:04.005Z,74.69
2023-11-12T08:00:32.012Z,75.26
2023-11-12T08:03:00.204Z,74.87
2023-11-12T08:05:28.316Z,75.67
2023-11-12T08:07:56.524Z,76.48
2023-11-12T08:10:24.448Z,76.99
2023-11-12T08:12:53.556Z,77.02
2023-11-12T08:15:21.868Z,77.78
2023-11-12T08:17:50.960Z,77.70
2023-11-12T08:20:19.440Z,78.60
2023-11-12T08:22:48.309Z,79.45
2023-11-12T08:25:16.374Z,79.16
2023-11-12T08:27:44.720Z,78.29
2023-11-12T08:30:12.750Z,78.00
2023-11-12T08:32:40.984Z,77.86
2023-11-12T08:35:09.149Z,76.16
2023-11-12T08:37:37.337Z,76.92
2023-11-12T08:40:06.235Z,76.32
2023-11-12T08:42:35.170Z,73.95
2023-11-12T08:45:05.659Z,72.25
2023-11-12T08:47:33.620Z,71.65
2023-11-12T08:50:02.060Z,68.88
2023-11-12T08:53:07.963Z,66.81
2023-11-12T08:55:35.051Z,65.75
2023-11-12T08:58:01.849Z,65.17
2023-11-12T09:00:28.634Z,62.21
2023-11-12T09:02:55.201Z,62.51
2023-11-12T09:05:21.740Z,62.80
2023-11-12T09:07:50.721Z,60.75
2023-11-12T09:10:18.313Z,59.08
2023-11-12T09:12:45.207Z,59.49
2023-11-12T09:15:12.299Z,61.09
2023-11-12T09:17:39.104Z,60.40
2023-11-12T09:20:06.456Z,59.56
2023-11-12T09:22:33.978Z,59.66
2023-11-12T09:25:09.190Z,59.75
2023-11-12T09:27:38.532Z,59.76
2023-11-12T09:30:06.725Z,58.41
2023-11-12T09:32:37.920Z,58.42
2023-11-12T09:35:06.544Z,57.50
2023-11-12T09:37:33.215Z,57.04
2023-11-12T09:40:00.845Z,55.26
2023-11-12T09:42:30.614Z,53.42
2023-11-12T09:44:59.941Z,53.53
2023-11-12T09:47:42.558Z,52.33
2023-11-12T09:50:13.220Z,52.26
2023-11-12T09:52:40.315Z,52.60
2023-11-12T09:55:07.873Z,53.62
2023-11-12T09:57:35.846Z,52.67
2023-11-12T10:00:05.867Z,51.01
2023-11-12T10:02:34.536Z,49.09
2023-11-12T10:05:11.064Z,48.65
2023-11-12T10:07:41.520Z,48.10
2023-11-12T10:10:30.250Z,50.02
2023-11-12T10:12:57.562Z,51.06
2023-11-12T10:15:26.420Z,51.99
2023-11-12T10:17:57.552Z,53.95
2023-11-12T10:20:32.583Z,55.81
2023-11-12T10:23:00.162Z,56.22
2023-11-12T10:25:42.734Z,57.41
2023-11-12T10:28:12.709Z,59.21
2023-11-12T10:30:44.107Z,60.55
2023-11-12T10:33:24.868Z,61.90
2023-11-12T10:35:51.669Z,63.18
2023-11-12T10:38:18.636Z,63.99
2023-11-12T10:41:05.206Z,63.94
2023-11-12T10:43:32.970Z,64.66
2023-11-12T10:46:08.100Z,64.47
2023-11-12T10:48:38.777Z,63.87
2023-11-12T10:51:07.421Z,64.12
2023-11-12T10:53:36.883Z,62.60
2023-11-12T10:56:06.464Z,59.62
2023-11-12T10:58:33.755Z,58.15
2023-11-12T11:01:02.059Z,58.21
2023-11-12T11:03:30.806Z,58.00
2023-11-12T11:06:02.364Z,58.23
2023-11-12T11:08:36.751Z,58.98
2023-11-12T11:11:09.302Z,57.23
2023-11-12T11:13:37.544Z,54.56
2023-11-12T11:16:04.628Z,52.94
2023-11-12T11:18:34.534Z,52.21
2023-11-12T11:21:11.547Z,52.20
2023-11-12T11:23:56.768Z,51.08
2023-11-12T11:26:33.669Z,52.02
2023-11-12T11:29:05.193Z,52.32
2023-11-12T11:31:32.613Z,52.18
2023-11-12T11:34:00.836Z,50.69
2023-11-12T11:36:27.731Z,49.59
2023-11-12T11:39:07.091Z,48.35
2023-11-12T11:41:35.078Z,48.03
2023-11-12T11:44:33.593Z,47.13
2023-11-12T11:47:09.638Z,45.80
2023-11-12T11:49:38.629Z,46.20
2023-11-12T11:52:06.551Z,45.77
2023-11-12T11:54:34.578Z,46.07
2023-11-12T11:57:02.152Z,46.93
2023-11-12T11:59:35.952Z,47.40
2023-11-12T12:02:06.543Z,47.69
2023-11-12T12:04:33.725Z,48.75
2023-11-12T12:07:00.410Z,49.22
2023-11-12T12:09:27.276Z,50.87
2023-11-12T12:11:54.256Z,53.63
2023-11-12T12:14:22.603Z,56.60
2023-11-12T12:16:49.473Z,59.63
2023-11-12T12:19:24.233Z,61.41
2023-11-12T12:21:52.403Z,61.72
2023-11-12T12:24:21.863Z,62.35
2023-11-12T12:26:48.559Z,62.84
2023-11-12T12:29:17.518Z,63.74
2023-11-12T12:31:45.295Z,63.84
2023-11-12T12:34:12.994Z,63.18
2023-11-12T12:36:39.750Z,62.60
2023-11-12T12:39:10.344Z,61.90
2023-11-12T12:41:38.644Z,60.31
2023-11-12T12:44:05.402Z,58.52
2023-11-12T12:46:47.618Z,57.62
2023-11-12T12:49:31.113Z,56.78
2023-11-12T12:52:00.197Z,56.33
2023-11-12T12:54:30.098Z,57.09
2023-11-12T12:57:01.565Z,58.15
2023-11-12T12:59:38.165Z,59.13
2023-11-12T13:02:05.356Z,59.08
2023-11-12T13:04:35.598Z,59.57
2023-11-12T13:07:07.002Z,60.60
2023-11-12T13:09:34.165Z,61.56
2023-11-12T13:12:04.533Z,61.26
2023-11-12T13:14:34.564Z,60.67
2023-11-12T13:17:05.196Z,61.65
2023-11-12T13:19:33.883Z,62.42
2023-11-12T13:22:03.309Z,62.72
2023-11-12T13:24:30.822Z,62.99
2023-11-12T13:26:58.284Z,64.07
2023-11-12T13:29:27.903Z,65.63
2023-11-12T13:31:59.806Z,66.33
2023-11-12T13:34:26.554Z,66.88
2023-11-12T13:36:53.428Z,68.13
2023-11-12T13:39:20.474Z,69.31
2023-11-12T13:41:50.209Z,69.87
2023-11-12T13:44:19.167Z,70.25
2023-11-12T13:46:46.296Z,71.98
2023-11-12T13:49:16.205Z,72.31
2023-11-12T13:51:42.950Z,72.37
2023-11-12T13:54:13.434Z,73.12
2023-11-12T13:56:43.113Z,73.04
2023-11-12T13:59:09.846Z,73.18
2023-11-12T14:01:36.903Z,74.21
2023-11-12T14:04:08.165Z,74.65
2023-11-12T14:06:34.904Z,74.24
2023-11-12T14:09:01.750Z,74.14
2023-11-12T14:11:28.570Z,74.45
2023-11-12T14:13:56.340Z,74.98
2023-11-12T14:16:23.836Z,75.16
2023-11-12T14:18:50.405Z,74.82
2023-11-12T14:21:17.376Z,75.02
2023-11-12T14:23:44.107Z,75.51
2023-11-12T14:26:11.110Z,75.53
2023-11-12T14:28:39.377Z,75.91
2023-11-12T14:31:11.216Z,76.28
2023-11-12T14:33:40.095Z,76.17
2023-11-12T14:36:11.335Z,76.01
2023-11-12T14:38:38.237Z,76.07
2023-11-12T14:41:05.117Z,76.27
2023-11-12T14:43:38.403Z,76.39
2023-11-12T14:46:08.369Z,76.37
2023-11-12T14:48:35.647Z,77.39
2023-11-12T14:51:08.473Z,77.42
2023-11-12T14:53:34.974Z,78.04
2023-11-12T14:56:01.622Z,78.46
2023-11-12T14:58:28.184Z,79.60
2023-11-12T15:00:55.223Z,79.65
2023-11-12T15:03:23.590Z,79.23
2023-11-12T15:05:50.477Z,79.71
2023-11-12T15:08:16.956Z,79.58
2023-11-12T15:10:43.627Z,79.72
2023-11-12T15:13:10.253Z,80.02
2023-11-12T15:15:37.234Z,80.08
2023-11-12T15:18:04.488Z,80.27
2023-11-12T15:20:31.015Z,80.32
2023-11-12T15:22:57.523Z,80.79
2023-11-12T15:25:25.234Z,80.56
2023-11-12T15:27:51.896Z,80.65
2023-11-12T15:30:19.671Z,80.63
2023-11-12T15:32:46.777Z,80.85
2023-11-12T15:35:14.774Z,81.15
2023-11-12T15:37:41.551Z,81.08
2023-11-12T15:40:26.551Z,81.26
2023-11-12T15:42:56.977Z,81.57
2023-11-12T15:45:24.089Z,81.31
2023-11-12T15:47:51.031Z,81.32
2023-11-12T15:50:18.166Z,81.65
2023-11-12T15:52:45.774Z,81.74
2023-11-12T15:55:13.124Z,82.26
2023-11-12T15:57:41.266Z,82.45
2023-11-12T16:00:19.313Z,82.61
2023-11-12T16:02:47.627Z,82.23
2023-11-12T16:05:15.512Z,82.18
2023-11-12T16:07:43.511Z,82.93
2023-11-12T16:10:11.824Z,83.30
2023-11-12T16:12:38.785Z,83.28
2023-11-12T16:15:11.298Z,83.50
2023-11-12T16:17:38.948Z,83.29
2023-11-12T16:20:08.913Z,83.63
2023-11-12T16:22:38.701Z,83.85
2023-11-12T16:25:11.106Z,83.40
2023-11-12T16:27:38.659Z,83.26
2023-11-12T16:30:12.353Z,83.48
2023-11-12T16:32:39.129Z,83.35
2023-11-12T16:35:07.087Z,83.28
2023-11-12T16:37:33.966Z,83.28
2023-11-12T16:40:01.384Z,83.07
2023-11-12T16:42:28.904Z,82.81
2023-11-12T16:44:57.235Z,82.96
2023-11-12T16:47:24.213Z,83.84
2023-11-12T16:49:51.546Z,83.64
2023-11-12T16:52:18.300Z,83.40
2023-11-12T16:54:44.860Z,83.24
2023-11-12T16:57:11.538Z,83.57
2023-11-12T16:59:41.802Z,83.46
2023-11-12T17:02:11.637Z,83.26
2023-11-12T17:04:38.802Z,83.10
2023-11-12T17:07:08.899Z,83.16
2023-11-12T17:09:35.664Z,82.89
2023-11-12T17:12:02.214Z,83.19
2023-11-12T17:14:29.322Z,83.25
2023-11-12T17:16:55.948Z,83.56
2023-11-12T17:19:22.630Z,82.96
2023-11-12T17:21:50.958Z,83.15
2023-11-12T17:24:18.125Z,82.85
2023-11-12T17:26:46.426Z,82.46
2023-11-12T17:29:13.149Z,82.40
2023-11-12T17:31:39.757Z,82.31
2023-11-12T17:34:06.696Z,82.07
2023-11-12T17:36:36.581Z,81.53
2023-11-12T17:39:03.701Z,81.83
2023-11-12T17:41:30.289Z,81.85
2023-11-12T17:43:57.181Z,81.66
2023-11-12T17:46:23.886Z,81.93
2023-11-12T17:48:54.461Z,81.66
2023-11-12T17:51:22.465Z,81.46
2023-11-12T17:53:49.553Z,81.28
2023-11-12T17:56:16.091Z,81.30
2023-11-12T17:58:42.634Z,81.32
2023-11-12T18:01:09.607Z,81.22
2023-11-12T18:03:36.331Z,81.76
2023-11-12T18:06:05.906Z,81.51
2023-11-12T18:08:37.109Z,81.54
2023-11-12T18:11:04.620Z,81.92
2023-11-12T18:13:33.717Z,81.81
2023-11-12T18:16:01.817Z,81.63
2023-11-12T18:18:31.668Z,81.71
2023-11-12T18:20:59.820Z,82.12
2023-11-12T18:23:26.377Z,81.94
2023-11-12T18:25:53.115Z,81.42
2023-11-12T18:28:24.304Z,80.92
2023-11-12T18:30:53.762Z,81.15
2023-11-12T18:33:20.652Z,81.02
2023-11-12T18:35:47.936Z,80.91
2023-11-12T18:38:14.486Z,80.88
2023-11-12T18:40:41.274Z,81.08
2023-11-12T18:43:10.752Z,80.86
2023-11-12T18:45:37.812Z,80.68
2023-11-12T18:48:08.748Z,80.35
2023-11-12T18:50:37.677Z,80.55
2023-11-12T18:53:04.206Z,80.37
2023-11-12T18:55:31.016Z,80.40
2023-11-12T18:57:59.180Z,80.37
2023-11-12T19:00:25.867Z,80.57
2023-11-12T19:02:53.696Z,80.36
2023-11-12T19:05:22.148Z,80.36
2023-11-12T19:07:48.962Z,80.71
2023-11-12T19:10:16.916Z,80.86
2023-11-12T19:14:45.263Z,80.05
2023-11-12T19:17:13.404Z,80.04
2023-11-12T19:19:41.725Z,80.07
2023-11-12T19:22:12.248Z,79.72
2023-11-12T19:24:40.127Z,79.85
2023-11-12T19:27:08.448Z,79.47
2023-11-12T19:29:36.398Z,79.96
2023-11-12T19:32:05.468Z,79.65
2023-11-12T19:34:35.582Z,79.54
2023-11-12T19:37:03.826Z,79.17
2023-11-12T19:39:31.754Z,79.70
2023-11-12T19:41:59.604Z,79.69
2023-11-12T19:44:27.544Z,79.33
2023-11-12T19:46:55.540Z,79.84
2023-11-12T19:49:24.025Z,80.11
2023-11-12T19:51:52.050Z,80.30
2023-11-12T19:54:21.689Z,80.27
2023-11-12T19:56:52.049Z,80.82
2023-11-12T19:59:20.142Z,80.45
2023-11-12T20:01:48.229Z,81.00
2023-11-12T20:04:16.341Z,80.79
2023-11-12T20:06:44.308Z,80.38
2023-11-12T20:09:12.322Z,80.09
2023-11-12T20:11:40.613Z,80.23
2023-11-12T20:14:08.659Z,81.00
2023-11-12T20:16:36.946Z,80.97
2023-11-12T20:19:07.154Z,80.63
2023-11-12T20:21:44.542Z,80.41
2023-11-12T20:24:12.956Z,80.55
2023-11-12T20:26:51.614Z,80.44
2023-11-12T20:29:23.230Z,80.53
2023-11-12T20:31:55.697Z,80.62
2023-11-12T20:34:24.099Z,80.61
2023-11-12T20:36:52.410Z,80.91
2023-11-12T20:39:21.679Z,80.57
2023-11-12T20:41:51.963Z,80.70
2023-11-12T20:44:21.053Z,80.90
2023-11-12T20:46:50.478Z,80.82
2023-11-12T20:49:19.425Z,81.11
2023-11-12T20:51:48.459Z,81.53
2023-11-12T20:54:17.380Z,81.10
2023-11-12T20:56:45.951Z,81.16
2023-11-12T20:59:14.428Z,81.25
2023-11-12T21:01:44.019Z,81.01
2023-11-12T21:04:13.503Z,81.17
2023-11-12T21:06:44.230Z,81.37
2023-11-12T21:09:13.482Z,81.69
2023-11-12T21:14:38.736Z,81.28
2023-11-12T21:17:07.155Z,81.49
2023-11-12T21:19:35.114Z,81.28
2023-11-12T21:22:02.981Z,81.15
2023-11-12T21:24:30.820Z,80.95
2023-11-12T21:26:58.930Z,81.03
2023-11-12T21:29:26.938Z,80.93
2023-11-12T21:31:55.450Z,80.74
2023-11-12T21:34:23.480Z,80.66
2023-11-12T21:36:51.511Z,81.00
2023-11-12T21:39:20.416Z,81.34
2023-11-12T21:41:49.243Z,81.57
2023-11-12T21:44:20.131Z,82.25
2023-11-12T21:54:30.969Z,82.13
2023-11-12T21:57:00.012Z,82.58
2023-11-12T21:59:26.498Z,82.72
2023-11-12T22:01:53.383Z,82.41
2023-11-12T22:04:22.251Z,82.52
2023-11-12T22:06:50.598Z,82.40
2023-11-12T22:09:18.078Z,82.11
2023-11-12T22:11:46.177Z,82.07
2023-11-12T22:14:13.736Z,82.01
2023-11-12T22:16:44.106Z,82.00
2023-11-12T22:19:12.509Z,81.93
2023-11-12T22:21:40.419Z,81.57
2023-11-12T22:24:07.712Z,81.45
2023-11-12T22:26:37.056Z,81.81
2023-11-12T22:29:03.624Z,81.85
2023-11-12T22:31:30.327Z,81.68
2023-11-12T22:33:57.098Z,81.58
2023-11-12T22:36:23.700Z,81.64
2023-11-12T22:38:50.196Z,81.99
2023-11-12T22:41:16.691Z,81.86
2023-11-12T22:43:43.295Z,81.61
2023-11-12T22:46:10.308Z,81.72
2023-11-12T22:48:37.439Z,81.48
2023-11-12T22:51:05.844Z,81.54
2023-11-12T22:53:32.561Z,81.42
2023-11-12T22:55:59.694Z,81.32
2023-11-12T22:58:30.136Z,81.13
2023-11-12T23:01:00.673Z,81.00
2023-11-12T23:03:29.163Z,80.93
2023-11-12T23:05:55.865Z,81.17
2023-11-12T23:08:22.383Z,81.34
2023-11-12T23:10:49.389Z,81.43
2023-11-12T23:13:19.771Z,81.56
2023-11-12T23:15:46.666Z,81.94
2023-11-12T23:18:13.419Z,81.84
2023-11-12T23:20:40.596Z,82.06
2023-11-12T23:23:07.249Z,82.34
2023-11-12T23:25:33.800Z,82.41
2023-11-12T23:28:00.498Z,82.21
2023-11-12T23:30:31.146Z,82.29
2023-11-12T23:32:57.717Z,82.56
2023-11-12T23:35:26.674Z,82.66
2023-11-12T23:37:53.305Z,82.99
2023-11-12T23:40:19.852Z,82.95
2023-11-12T23:42:46.346Z,83.17
2023-11-12T23:45:13.584Z,83.55
2023-11-12T23:47:40.262Z,83.67
2023-11-12T23:50:08.218Z,83.80
2023-11-12T23:52:34.700Z,83.43
2023-11-12T23:55:01.613Z,83.82
2023-11-12T23:57:28.109Z,84.05
2023-11-12T23:59:54.677Z,83.79
